sensor_id;sensor_type;location;lat;lon;timestamp;pressure;altitude;pressure_sealevel;temperature;humidity
5996;BME280;3026;53.612;7.278;2023-07-13T00:00:26;101079.16;;;17.05;100.00
5996;BME280;3026;53.612;7.278;2023-07-13T00:02:53;101058.78;;;16.99;100.00
5996;BME280;3026;53.612;7.278;2023-07-13T00:05:20;101057.13;;;17.05;100.00
5996;BME280;3026;53.612;7.278;2023-07-13T00:07:47;101040.16;;;17.01;100.00
5996;BME280;3026;53.612;7.278;2023-07-13T00:10:14;101066.44;;;17.04;100.00
5996;BME280;3026;53.612;7.278;2023-07-13T00:12:42;101066.44;;;17.04;100.00
5996;BME280;3026;53.612;7.278;2023-07-13T00:15:12;101057.94;;;16.99;100.00
5996;BME280;3026;53.612;7.278;2023-07-13T00:17:41;101052.22;;;17.00;100.00
5996;BME280;3026;53.612;7.278;2023-07-13T00:20:10;101069.00;;;17.05;100.00
5996;BME280;3026;53.612;7.278;2023-07-13T00:22:37;101064.75;;;17.03;100.00
5996;BME280;3026;53.612;7.278;2023-07-13T00:25:05;101060.28;;;17.02;100.00
5996;BME280;3026;53.612;7.278;2023-07-13T00:27:32;101066.44;;;17.04;100.00
5996;BME280;3026;53.612;7.278;2023-07-13T00:30:00;101063.69;;;17.04;100.00
5996;BME280;3026;53.612;7.278;2023-07-13T00:32:28;101071.97;;;17.04;100.00
5996;BME280;3026;53.612;7.278;2023-07-13T00:34:56;101064.09;;;17.01;100.00
5996;BME280;3026;53.612;7.278;2023-07-13T00:37:23;101053.72;;;16.96;100.00
5996;BME280;3026;53.612;7.278;2023-07-13T00:39:50;101073.41;;;17.00;100.00
5996;BME280;3026;53.612;7.278;2023-07-13T00:42:17;101075.31;;;16.99;100.00
5996;BME280;3026;53.612;7.278;2023-07-13T00:45:04;101064.72;;;16.96;100.00
5996;BME280;3026;53.612;7.278;2023-07-13T00:47:31;101063.25;;;16.94;100.00
5996;BME280;3026;53.612;7.278;2023-07-13T00:49:58;101055.00;;;16.94;100.00
5996;BME280;3026;53.612;7.278;2023-07-13T00:52:25;101065.16;;;16.93;100.00
5996;BME280;3026;53.612;7.278;2023-07-13T00:54:54;101059.66;;;16.93;100.00
5996;BME280;3026;53.612;7.278;2023-07-13T00:57:21;101069.38;;;16.96;100.00
5996;BME280;3026;53.612;7.278;2023-07-13T00:59:51;101063.88;;;16.96;100.00
5996;BME280;3026;53.612;7.278;2023-07-13T01:02:20;101069.38;;;16.96;100.00
5996;BME280;3026;53.612;7.278;2023-07-13T01:04:47;101071.09;;;16.97;100.00
5996;BME280;3026;53.612;7.278;2023-07-13T01:07:14;101065.56;;;16.97;100.00
5996;BME280;3026;53.612;7.278;2023-07-13T01:09:41;101071.09;;;16.97;100.00
5996;BME280;3026;53.612;7.278;2023-07-13T01:12:10;101067.28;;;16.98;100.00
5996;BME280;3026;53.612;7.278;2023-07-13T01:14:37;101067.28;;;16.98;100.00
5996;BME280;3026;53.612;7.278;2023-07-13T01:17:04;101068.97;;;16.99;100.00
5996;BME280;3026;53.612;7.278;2023-07-13T01:19:39;101068.97;;;16.99;100.00
5996;BME280;3026;53.612;7.278;2023-07-13T01:22:10;101073.63;;;16.98;100.00
5996;BME280;3026;53.612;7.278;2023-07-13T01:24:38;101067.69;;;16.95;100.00
5996;BME280;3026;53.612;7.278;2023-07-13T01:27:06;101074.47;;;16.99;100.00
5996;BME280;3026;53.612;7.278;2023-07-13T01:29:35;101075.09;;;17.01;100.00
5996;BME280;3026;53.612;7.278;2023-07-13T01:32:08;101079.56;;;17.02;100.00
5996;BME280;3026;53.612;7.278;2023-07-13T01:34:35;101073.03;;;17.03;100.00
5996;BME280;3026;53.612;7.278;2023-07-13T01:37:03;101066.44;;;17.04;100.00
5996;BME280;3026;53.612;7.278;2023-07-13T01:39:31;101077.47;;;17.04;100.00
5996;BME280;3026;53.612;7.278;2023-07-13T01:41:58;101065.16;;;17.00;100.00
5996;BME280;3026;53.612;7.278;2023-07-13T01:44:25;101075.34;;;17.06;100.00
5996;BME280;3026;53.612;7.278;2023-07-13T01:46:52;101074.94;;;17.02;100.00
5996;BME280;3026;53.612;7.278;2023-07-13T01:49:19;101086.78;;;17.03;100.00
5996;BME280;3026;53.612;7.278;2023-07-13T01:51:46;101078.53;;;17.03;100.00
5996;BME280;3026;53.612;7.278;2023-07-13T01:54:13;101076.81;;;17.02;100.00
5996;BME280;3026;53.612;7.278;2023-07-13T01:56:41;101080.84;;;16.99;100.00
5996;BME280;3026;53.612;7.278;2023-07-13T01:59:09;101082.94;;;16.97;100.00
5996;BME280;3026;53.612;7.278;2023-07-13T02:01:36;101085.06;;;16.95;100.00
5996;BME280;3026;53.612;7.278;2023-07-13T02:04:03;101084.44;;;16.93;100.00
5996;BME280;3026;53.612;7.278;2023-07-13T02:06:30;101091.00;;;16.92;100.00
5996;BME280;3026;53.612;7.278;2023-07-13T02:08:57;101078.47;;;16.89;100.00
5996;BME280;3026;53.612;7.278;2023-07-13T02:11:24;101079.53;;;16.88;100.00
5996;BME280;3026;53.612;7.278;2023-07-13T02:13:59;101081.66;;;16.86;100.00
5996;BME280;3026;53.612;7.278;2023-07-13T02:16:27;101075.94;;;16.81;100.00
5996;BME280;3026;53.612;7.278;2023-07-13T02:18:54;101073.19;;;16.81;100.00
5996;BME280;3026;53.612;7.278;2023-07-13T02:21:21;101084.19;;;16.81;100.00
5996;BME280;3026;53.612;7.278;2023-07-13T02:23:48;101089.91;;;16.86;100.00
5996;BME280;3026;53.612;7.278;2023-07-13T02:26:15;101096.47;;;16.85;100.00
5996;BME280;3026;53.612;7.278;2023-07-13T02:28:42;101102.00;;;16.85;100.00
5996;BME280;3026;53.612;7.278;2023-07-13T02:31:12;101100.28;;;16.84;100.00
5996;BME280;3026;53.612;7.278;2023-07-13T02:33:39;101091.81;;;16.86;100.00
5996;BME280;3026;53.612;7.278;2023-07-13T02:36:07;101088.84;;;16.87;100.00
5996;BME280;3026;53.612;7.278;2023-07-13T02:38:34;101083.34;;;16.87;100.00
5996;BME280;3026;53.612;7.278;2023-07-13T02:41:01;101077.63;;;16.89;100.00
5996;BME280;3026;53.612;7.278;2023-07-13T02:43:29;101074.88;;;16.89;100.00
5996;BME280;3026;53.612;7.278;2023-07-13T02:45:56;101082.97;;;16.90;100.00
5996;BME280;3026;53.612;7.278;2023-07-13T02:48:27;101070.88;;;16.91;100.00
5996;BME280;3026;53.612;7.278;2023-07-13T02:50:54;101085.50;;;16.92;100.00
5996;BME280;3026;53.612;7.278;2023-07-13T02:53:21;101080.00;;;16.92;100.00
5996;BME280;3026;53.612;7.278;2023-07-13T02:55:47;101089.72;;;16.95;100.00
5996;BME280;3026;53.612;7.278;2023-07-13T02:58:14;101088.88;;;16.94;100.00
5996;BME280;3026;53.612;7.278;2023-07-13T03:00:42;101083.38;;;16.94;100.00
5996;BME280;3026;53.612;7.278;2023-07-13T03:03:09;101081.22;;;16.89;100.00
5996;BME280;3026;53.612;7.278;2023-07-13T03:05:40;101091.84;;;16.92;100.00
5996;BME280;3026;53.612;7.278;2023-07-13T03:08:08;101096.72;;;16.90;100.00
5996;BME280;3026;53.612;7.278;2023-07-13T03:10:35;101085.88;;;16.89;100.00
5996;BME280;3026;53.612;7.278;2023-07-13T03:13:02;101085.88;;;16.89;100.00
5996;BME280;3026;53.612;7.278;2023-07-13T03:15:29;101083.34;;;16.87;100.00
5996;BME280;3026;53.612;7.278;2023-07-13T03:17:56;101091.81;;;16.86;100.00
5996;BME280;3026;53.612;7.278;2023-07-13T03:20:23;101084.41;;;16.86;100.00
5996;BME280;3026;53.612;7.278;2023-07-13T03:22:51;101086.53;;;16.84;100.00
5996;BME280;3026;53.612;7.278;2023-07-13T03:25:18;101089.72;;;16.81;100.00
5996;BME280;3026;53.612;7.278;2023-07-13T03:27:45;101079.06;;;16.78;100.00
5996;BME280;3026;53.612;7.278;2023-07-13T03:30:12;101073.56;;;16.78;100.00
5996;BME280;3026;53.612;7.278;2023-07-13T03:32:39;101081.19;;;16.76;100.00
5996;BME280;3026;53.612;7.278;2023-07-13T03:35:07;101085.00;;;16.75;100.00
5996;BME280;3026;53.612;7.278;2023-07-13T03:37:34;101083.31;;;16.74;100.00
5996;BME280;3026;53.612;7.278;2023-07-13T03:40:10;101085.44;;;16.72;100.00
5996;BME280;3026;53.612;7.278;2023-07-13T03:42:37;101087.13;;;16.73;100.00
5996;BME280;3026;53.612;7.278;2023-07-13T03:45:05;101094.75;;;16.71;100.00
5996;BME280;3026;53.612;7.278;2023-07-13T03:47:32;101094.75;;;16.71;100.00
5996;BME280;3026;53.612;7.278;2023-07-13T03:49:58;101099.41;;;16.71;100.00
5996;BME280;3026;53.612;7.278;2023-07-13T03:52:25;101096.66;;;16.71;100.00
5996;BME280;3026;53.612;7.278;2023-07-13T03:54:52;101098.78;;;16.69;100.00
5996;BME280;3026;53.612;7.278;2023-07-13T03:57:20;101097.72;;;16.70;100.00
5996;BME280;3026;53.612;7.278;2023-07-13T03:59:47;101094.13;;;16.69;100.00
5996;BME280;3026;53.612;7.278;2023-07-13T04:02:14;101101.53;;;16.75;100.00
5996;BME280;3026;53.612;7.278;2023-07-13T04:04:41;101104.94;;;16.77;100.00
5996;BME280;3026;53.612;7.278;2023-07-13T04:07:08;101115.53;;;16.80;100.00
5996;BME280;3026;53.612;7.278;2023-07-13T04:09:35;101107.91;;;16.82;100.00
5996;BME280;3026;53.612;7.278;2023-07-13T04:12:02;101107.72;;;16.84;100.00
5996;BME280;3026;53.612;7.278;2023-07-13T04:14:30;101110.25;;;16.85;100.00
5996;BME280;3026;53.612;7.278;2023-07-13T04:16:57;101101.34;;;16.83;100.00
5996;BME280;3026;53.612;7.278;2023-07-13T04:19:24;101110.88;;;16.87;100.00
5996;BME280;3026;53.612;7.278;2023-07-13T04:21:50;101108.78;;;16.89;100.00
5996;BME280;3026;53.612;7.278;2023-07-13T04:24:17;101121.09;;;16.94;100.00
5996;BME280;3026;53.612;7.278;2023-07-13T04:26:44;101117.28;;;16.95;100.00
5996;BME280;3026;53.612;7.278;2023-07-13T04:29:11;101115.59;;;16.94;100.00
5996;BME280;3026;53.612;7.278;2023-07-13T04:31:39;101115.16;;;16.97;100.00
5996;BME280;3026;53.612;7.278;2023-07-13T04:34:06;101121.31;;;16.99;100.00
5996;BME280;3026;53.612;7.278;2023-07-13T04:36:33;101123.00;;;17.00;100.00
5996;BME280;3026;53.612;7.278;2023-07-13T04:39:03;101127.06;;;17.04;100.00
5996;BME280;3026;53.612;7.278;2023-07-13T04:41:29;101131.28;;;17.06;100.00
5996;BME280;3026;53.612;7.278;2023-07-13T04:43:56;101130.03;;;17.09;100.00
5996;BME280;3026;53.612;7.278;2023-07-13T04:46:23;101130.03;;;17.09;100.00
5996;BME280;3026;53.612;7.278;2023-07-13T04:48:51;101133.03;;;17.14;100.00
5996;BME280;3026;53.612;7.278;2023-07-13T04:51:19;101127.28;;;17.15;100.00
5996;BME280;3026;53.612;7.278;2023-07-13T04:53:46;101134.28;;;17.18;100.00
5996;BME280;3026;53.612;7.278;2023-07-13T04:56:13;101122.00;;;17.14;100.00
5996;BME280;3026;53.612;7.278;2023-07-13T04:58:40;101128.78;;;17.18;100.00
5996;BME280;3026;53.612;7.278;2023-07-13T05:01:07;101128.78;;;17.18;100.00
5996;BME280;3026;53.612;7.278;2023-07-13T05:03:34;101130.47;;;17.19;100.00
5996;BME280;3026;53.612;7.278;2023-07-13T05:06:05;101130.47;;;17.19;100.00
5996;BME280;3026;53.612;7.278;2023-07-13T05:08:33;101136.63;;;17.21;100.00
5996;BME280;3026;53.612;7.278;2023-07-13T05:11:01;101139.38;;;17.21;100.00
5996;BME280;3026;53.612;7.278;2023-07-13T05:13:28;101135.56;;;17.22;100.00
5996;BME280;3026;53.612;7.278;2023-07-13T05:15:56;101144.47;;;17.24;100.00
5996;BME280;3026;53.612;7.278;2023-07-13T05:18:24;101142.75;;;17.23;100.00
5996;BME280;3026;53.612;7.278;2023-07-13T05:20:58;101143.00;;;17.28;100.00
5996;BME280;3026;53.612;7.278;2023-07-13T05:23:27;101149.16;;;17.30;100.00
5996;BME280;3026;53.612;7.278;2023-07-13T05:25:54;101148.72;;;17.33;100.00
5996;BME280;3026;53.612;7.278;2023-07-13T05:28:21;101150.44;;;17.41;100.00
5996;BME280;3026;53.612;7.278;2023-07-13T05:30:49;101150.44;;;17.47;100.00
5996;BME280;3026;53.612;7.278;2023-07-13T05:33:16;101150.88;;;17.58;100.00
5996;BME280;3026;53.612;7.278;2023-07-13T05:35:43;101152.16;;;17.62;100.00
5996;BME280;3026;53.612;7.278;2023-07-13T05:38:10;101146.66;;;17.62;100.00
5996;BME280;3026;53.612;7.278;2023-07-13T05:40:38;101158.31;;;17.70;100.00
5996;BME280;3026;53.612;7.278;2023-07-13T05:43:05;101155.38;;;17.78;100.00
5996;BME280;3026;53.612;7.278;2023-07-13T05:45:32;101153.25;;;17.87;100.00
5996;BME280;3026;53.612;7.278;2023-07-13T05:47:59;101156.44;;;17.97;100.00
5996;BME280;3026;53.612;7.278;2023-07-13T05:50:26;101163.44;;;18.06;100.00
5996;BME280;3026;53.612;7.278;2023-07-13T05:52:53;101156.84;;;18.07;100.00
5996;BME280;3026;53.612;7.278;2023-07-13T05:55:20;101162.56;;;18.13;100.00
5996;BME280;3026;53.612;7.278;2023-07-13T05:57:49;101165.31;;;18.13;100.00
5996;BME280;3026;53.612;7.278;2023-07-13T06:00:16;101164.88;;;18.16;100.00
5996;BME280;3026;53.612;7.278;2023-07-13T06:02:43;101167.41;;;18.17;100.00
5996;BME280;3026;53.612;7.278;2023-07-13T06:05:10;101163.41;;;18.20;100.00
5996;BME280;3026;53.612;7.278;2023-07-13T06:07:37;101165.72;;;18.23;100.00
5996;BME280;3026;53.612;7.278;2023-07-13T06:10:05;101168.66;;;18.28;100.00
5996;BME280;3026;53.612;7.278;2023-07-13T06:12:32;101173.78;;;18.31;100.00
5996;BME280;3026;53.612;7.278;2023-07-13T06:15:01;101169.97;;;18.32;100.00
5996;BME280;3026;53.612;7.278;2023-07-13T06:17:28;101187.34;;;18.39;100.00
5996;BME280;3026;53.612;7.278;2023-07-13T06:19:55;101175.88;;;18.42;100.00
5996;BME280;3026;53.612;7.278;2023-07-13T06:22:22;101183.94;;;18.44;100.00
5996;BME280;3026;53.612;7.278;2023-07-13T06:24:48;101175.88;;;18.42;100.00
5996;BME280;3026;53.612;7.278;2023-07-13T06:27:15;101188.19;;;18.46;100.00
5996;BME280;3026;53.612;7.278;2023-07-13T06:29:42;101187.97;;;18.48;100.00
5996;BME280;3026;53.612;7.278;2023-07-13T06:32:12;101190.09;;;18.52;100.00
5996;BME280;3026;53.612;7.278;2023-07-13T06:34:38;101195.34;;;18.60;100.00
5996;BME280;3026;53.612;7.278;2023-07-13T06:37:06;101203.91;;;18.65;100.00
5996;BME280;3026;53.612;7.278;2023-07-13T06:39:33;101210.66;;;18.70;100.00
5996;BME280;3026;53.612;7.278;2023-07-13T06:42:00;101206.41;;;18.74;100.00
5996;BME280;3026;53.612;7.278;2023-07-13T06:44:26;101205.53;;;18.80;100.00
5996;BME280;3026;53.612;7.278;2023-07-13T06:46:53;101195.75;;;18.84;100.00
5996;BME280;3026;53.612;7.278;2023-07-13T06:49:22;101206.34;;;18.93;100.00
5996;BME280;3026;53.612;7.278;2023-07-13T06:51:48;101205.88;;;19.03;100.00
5996;BME280;3026;53.612;7.278;2023-07-13T06:54:15;101199.03;;;19.12;100.00
5996;BME280;3026;53.612;7.278;2023-07-13T06:56:42;101207.47;;;19.24;100.00
5996;BME280;3026;53.612;7.278;2023-07-13T06:59:09;101209.53;;;19.35;100.00
5996;BME280;3026;53.612;7.278;2023-07-13T07:01:36;101202.66;;;19.44;100.00
5996;BME280;3026;53.612;7.278;2023-07-13T07:04:03;101212.38;;;19.53;100.00
5996;BME280;3026;53.612;7.278;2023-07-13T07:06:31;101215.31;;;19.65;100.00
5996;BME280;3026;53.612;7.278;2023-07-13T07:08:58;101225.50;;;19.71;100.00
5996;BME280;3026;53.612;7.278;2023-07-13T07:11:25;101232.28;;;19.75;100.00
5996;BME280;3026;53.612;7.278;2023-07-13T07:13:53;101229.69;;;19.80;100.00
5996;BME280;3026;53.612;7.278;2023-07-13T07:16:20;101220.94;;;19.84;100.00
5996;BME280;3026;53.612;7.278;2023-07-13T07:18:47;101219.88;;;19.85;100.00
5996;BME280;3026;53.612;7.278;2023-07-13T07:21:14;101230.13;;;19.77;100.00
5996;BME280;3026;53.612;7.278;2023-07-13T07:23:44;101228.84;;;19.80;100.00
5996;BME280;3026;53.612;7.278;2023-07-13T07:26:11;101233.97;;;19.76;100.00
5996;BME280;3026;53.612;7.278;2023-07-13T07:28:37;101226.75;;;19.75;100.00
5996;BME280;3026;53.612;7.278;2023-07-13T07:31:04;101242.03;;;19.78;100.00
5996;BME280;3026;53.612;7.278;2023-07-13T07:33:32;101238.00;;;19.80;100.00
5996;BME280;3026;53.612;7.278;2023-07-13T07:35:59;101241.56;;;19.88;100.00
5996;BME280;3026;53.612;7.278;2023-07-13T07:38:26;101228.53;;;19.95;100.00
5996;BME280;3026;53.612;7.278;2023-07-13T07:40:54;101244.88;;;20.03;100.00
5996;BME280;3026;53.612;7.278;2023-07-13T07:43:21;101243.06;;;20.15;100.00
5996;BME280;3026;53.612;7.278;2023-07-13T07:45:48;101241.25;;;20.27;100.00
5996;BME280;3026;53.612;7.278;2023-07-13T07:48:15;101250.06;;;20.43;100.00
5996;BME280;3026;53.612;7.278;2023-07-13T07:50:42;101234.00;;;20.51;100.00
5996;BME280;3026;53.612;7.278;2023-07-13T07:53:10;101248.25;;;20.55;100.00
5996;BME280;3026;53.612;7.278;2023-07-13T07:55:38;101243.94;;;20.59;100.00
5996;BME280;3026;53.612;7.278;2023-07-13T07:58:07;101243.03;;;20.65;100.00
5996;BME280;3026;53.612;7.278;2023-07-13T08:00:34;101238.34;;;20.65;100.00
5996;BME280;3026;53.612;7.278;2023-07-13T08:03:01;101248.09;;;20.68;100.00
5996;BME280;3026;53.612;7.278;2023-07-13T08:05:29;101244.34;;;20.62;100.00
5996;BME280;3026;53.612;7.278;2023-07-13T08:07:55;101238.53;;;20.46;100.00
5996;BME280;3026;53.612;7.278;2023-07-13T08:10:22;101247.53;;;20.34;100.00
5996;BME280;3026;53.612;7.278;2023-07-13T08:12:49;101239.09;;;20.29;100.00
5996;BME280;3026;53.612;7.278;2023-07-13T08:15:18;101243.78;;;20.29;100.00
5996;BME280;3026;53.612;7.278;2023-07-13T08:17:46;101252.16;;;20.47;100.00
5996;BME280;3026;53.612;7.278;2023-07-13T08:20:14;101248.09;;;20.68;100.00
5996;BME280;3026;53.612;7.278;2023-07-13T08:22:43;101253.50;;;20.81;100.00
5996;BME280;3026;53.612;7.278;2023-07-13T08:25:09;101246.25;;;20.80;100.00
5996;BME280;3026;53.612;7.278;2023-07-13T08:27:36;101256.13;;;20.76;100.00
5996;BME280;3026;53.612;7.278;2023-07-13T08:30:04;101257.34;;;20.80;100.00
5996;BME280;3026;53.612;7.278;2023-07-13T08:32:36;101259.44;;;20.85;100.00
5996;BME280;3026;53.612;7.278;2023-07-13T08:35:04;101257.66;;;20.90;100.00
5996;BME280;3026;53.612;7.278;2023-07-13T08:37:34;101254.59;;;20.98;100.00
5996;BME280;3026;53.612;7.278;2023-07-13T08:40:01;101256.03;;;21.01;100.00
5996;BME280;3026;53.612;7.278;2023-07-13T08:42:33;101262.56;;;21.07;100.00
5996;BME280;3026;53.612;7.278;2023-07-13T08:45:08;101267.19;;;21.13;100.00
5996;BME280;3026;53.612;7.278;2023-07-13T08:47:47;101260.28;;;21.22;100.00
5996;BME280;3026;53.612;7.278;2023-07-13T08:50:17;101262.75;;;21.30;100.00
5996;BME280;3026;53.612;7.278;2023-07-13T08:52:46;101262.47;;;21.50;100.00
5996;BME280;3026;53.612;7.278;2023-07-13T08:55:15;101262.69;;;21.67;100.00
5996;BME280;3026;53.612;7.278;2023-07-13T08:57:46;101250.06;;;21.82;100.00
5996;BME280;3026;53.612;7.278;2023-07-13T09:00:16;101262.09;;;22.06;100.00
5996;BME280;3026;53.612;7.278;2023-07-13T09:02:52;101279.28;;;21.97;100.00
5996;BME280;3026;53.612;7.278;2023-07-13T09:05:25;101267.06;;;21.86;100.00
5996;BME280;3026;53.612;7.278;2023-07-13T09:08:16;101275.00;;;21.71;100.00
5996;BME280;3026;53.612;7.278;2023-07-13T09:10:53;101268.97;;;21.74;100.00
5996;BME280;3026;53.612;7.278;2023-07-13T09:13:28;101279.97;;;21.80;100.00
5996;BME280;3026;53.612;7.278;2023-07-13T09:15:59;101270.94;;;21.85;100.00
5996;BME280;3026;53.612;7.278;2023-07-13T09:18:31;101279.25;;;21.85;100.00
5996;BME280;3026;53.612;7.278;2023-07-13T09:21:03;101272.63;;;21.86;100.00
5996;BME280;3026;53.612;7.278;2023-07-13T09:23:35;101283.72;;;21.86;100.00
5996;BME280;3026;53.612;7.278;2023-07-13T09:26:05;101282.63;;;21.87;100.00
5996;BME280;3026;53.612;7.278;2023-07-13T09:28:38;101276.97;;;21.82;100.00
5996;BME280;3026;53.612;7.278;2023-07-13T09:31:07;101290.63;;;21.95;100.00
5996;BME280;3026;53.612;7.278;2023-07-13T09:33:39;101273.66;;;22.03;100.00
5996;BME280;3026;53.612;7.278;2023-07-13T09:36:18;101285.78;;;22.21;100.00
5996;BME280;3026;53.612;7.278;2023-07-13T09:38:45;101297.63;;;22.28;100.00
5996;BME280;3026;53.612;7.278;2023-07-13T09:41:19;101295.59;;;22.23;100.00
5996;BME280;3026;53.612;7.278;2023-07-13T09:44:01;101301.72;;;22.13;100.00
5996;BME280;3026;53.612;7.278;2023-07-13T09:46:28;101285.06;;;22.13;100.00
5996;BME280;3026;53.612;7.278;2023-07-13T09:48:57;101292.19;;;22.21;100.00
5996;BME280;3026;53.612;7.278;2023-07-13T09:51:24;101304.50;;;22.13;100.00
5996;BME280;3026;53.612;7.278;2023-07-13T09:53:51;101309.28;;;22.06;100.00
5996;BME280;3026;53.612;7.278;2023-07-13T09:56:21;101314.69;;;22.01;100.00
5996;BME280;3026;53.612;7.278;2023-07-13T09:58:48;101316.38;;;22.02;100.00
5996;BME280;3026;53.612;7.278;2023-07-13T10:01:15;101304.78;;;22.05;100.00
5996;BME280;3026;53.612;7.278;2023-07-13T10:03:58;101314.78;;;22.25;100.00
5996;BME280;3026;53.612;7.278;2023-07-13T10:06:25;101319.63;;;22.41;100.00
5996;BME280;3026;53.612;7.278;2023-07-13T10:08:54;101311.66;;;22.56;100.00
5996;BME280;3026;53.612;7.278;2023-07-13T10:11:27;101315.53;;;22.79;100.00
5996;BME280;3026;53.612;7.278;2023-07-13T10:13:57;101318.50;;;22.84;100.00
5996;BME280;3026;53.612;7.278;2023-07-13T10:16:30;101317.16;;;22.86;100.00
5996;BME280;3026;53.612;7.278;2023-07-13T10:19:02;101332.47;;;22.65;100.00
5996;BME280;3026;53.612;7.278;2023-07-13T10:21:34;101325.69;;;22.38;100.00
5996;BME280;3026;53.612;7.278;2023-07-13T10:24:06;101332.72;;;22.10;100.00
5996;BME280;3026;53.612;7.278;2023-07-13T10:26:41;101328.97;;;21.87;100.00
5996;BME280;3026;53.612;7.278;2023-07-13T10:29:12;101335.69;;;21.67;100.00
5996;BME280;3026;53.612;7.278;2023-07-13T10:31:41;101340.56;;;21.53;100.00
5996;BME280;3026;53.612;7.278;2023-07-13T10:34:11;101343.66;;;21.45;100.00
5996;BME280;3026;53.612;7.278;2023-07-13T10:36:41;101351.50;;;21.30;100.00
5996;BME280;3026;53.612;7.278;2023-07-13T10:39:15;101340.09;;;21.20;100.00
5996;BME280;3026;53.612;7.278;2023-07-13T10:41:44;101347.75;;;21.18;100.00
5996;BME280;3026;53.612;7.278;2023-07-13T10:44:20;101343.94;;;21.19;100.00
5996;BME280;3026;53.612;7.278;2023-07-13T10:46:52;101346.06;;;21.17;100.00
5996;BME280;3026;53.612;7.278;2023-07-13T10:49:22;101352.88;;;21.21;100.00
5996;BME280;3026;53.612;7.278;2023-07-13T10:51:49;101348.53;;;21.25;100.00
5996;BME280;3026;53.612;7.278;2023-07-13T10:54:20;101341.97;;;21.44;100.00
5996;BME280;3026;53.612;7.278;2023-07-13T10:56:53;101341.78;;;21.58;100.00
5996;BME280;3026;53.612;7.278;2023-07-13T10:59:25;101342.16;;;21.61;100.00
5996;BME280;3026;53.612;7.278;2023-07-13T11:01:56;101348.25;;;21.51;100.00
5996;BME280;3026;53.612;7.278;2023-07-13T11:04:27;101340.72;;;21.40;100.00
5996;BME280;3026;53.612;7.278;2023-07-13T11:06:58;101353.66;;;21.28;100.00
5996;BME280;3026;53.612;7.278;2023-07-13T11:09:35;101352.75;;;21.34;100.00
5996;BME280;3026;53.612;7.278;2023-07-13T11:12:08;101347.94;;;21.41;100.00
5996;BME280;3026;53.612;7.278;2023-07-13T11:14:43;101360.19;;;21.52;100.00
5996;BME280;3026;53.612;7.278;2023-07-13T11:17:36;101357.47;;;21.64;100.00
5996;BME280;3026;53.612;7.278;2023-07-13T11:20:23;101364.09;;;21.81;100.00
5996;BME280;3026;53.612;7.278;2023-07-13T11:23:27;101372.38;;;21.99;100.00
5996;BME280;3026;53.612;7.278;2023-07-13T11:25:55;101371.00;;;22.08;100.00
5996;BME280;3026;53.612;7.278;2023-07-13T11:28:24;101375.13;;;22.18;100.00
5996;BME280;3026;53.612;7.278;2023-07-13T11:31:03;101379.94;;;22.10;100.00
5996;BME280;3026;53.612;7.278;2023-07-13T11:33:56;101386.72;;;22.15;100.00
5996;BME280;3026;53.612;7.278;2023-07-13T11:36:35;101387.22;;;22.11;100.00
5996;BME280;3026;53.612;7.278;2023-07-13T11:39:15;101382.56;;;22.05;100.00
5996;BME280;3026;53.612;7.278;2023-07-13T11:41:48;101415.09;;;21.98;100.00
5996;BME280;3026;53.612;7.278;2023-07-13T11:44:21;101412.69;;;21.90;100.00
5996;BME280;3026;53.612;7.278;2023-07-13T11:46:50;101414.75;;;21.95;100.00
5996;BME280;3026;53.612;7.278;2023-07-13T11:49:18;101404.00;;;21.98;100.00
5996;BME280;3026;53.612;7.278;2023-07-13T11:51:47;101410.31;;;22.05;100.00
5996;BME280;3026;53.612;7.278;2023-07-13T11:54:23;101421.28;;;22.19;100.00
5996;BME280;3026;53.612;7.278;2023-07-13T11:56:52;101416.00;;;22.29;100.00
5996;BME280;3026;53.612;7.278;2023-07-13T11:59:19;101417.50;;;22.43;100.00
5996;BME280;3026;53.612;7.278;2023-07-13T12:01:51;101413.63;;;22.44;100.00
5996;BME280;3026;53.612;7.278;2023-07-13T12:04:22;101411.19;;;22.36;100.00
5996;BME280;3026;53.612;7.278;2023-07-13T12:07:04;101409.91;;;22.20;100.00
5996;BME280;3026;53.612;7.278;2023-07-13T12:09:33;101413.66;;;22.14;100.00
5996;BME280;3026;53.612;7.278;2023-07-13T12:12:02;101415.09;;;21.98;100.00
5996;BME280;3026;53.612;7.278;2023-07-13T12:14:33;101406.97;;;21.85;100.00
5996;BME280;3026;53.612;7.278;2023-07-13T12:17:00;101412.38;;;21.80;100.00
5996;BME280;3026;53.612;7.278;2023-07-13T12:19:28;101418.47;;;21.70;100.00
5996;BME280;3026;53.612;7.278;2023-07-13T12:21:58;101416.84;;;21.63;100.00
5996;BME280;3026;53.612;7.278;2023-07-13T12:24:26;101419.78;;;21.68;100.00
5996;BME280;3026;53.612;7.278;2023-07-13T12:26:58;101418.78;;;21.80;100.00
5996;BME280;3026;53.612;7.278;2023-07-13T12:29:29;101426.09;;;21.93;100.00
5996;BME280;3026;53.612;7.278;2023-07-13T12:31:56;101422.94;;;21.90;100.00
5996;BME280;3026;53.612;7.278;2023-07-13T12:34:25;101415.75;;;21.82;100.00
5996;BME280;3026;53.612;7.278;2023-07-13T12:36:54;101417.09;;;21.79;100.00
5996;BME280;3026;53.612;7.278;2023-07-13T12:39:25;101413.91;;;21.76;100.00
5996;BME280;3026;53.612;7.278;2023-07-13T12:42:16;101431.19;;;21.78;100.00
5996;BME280;3026;53.612;7.278;2023-07-13T12:44:46;101426.72;;;21.77;100.00
5996;BME280;3026;53.612;7.278;2023-07-13T12:47:14;101423.47;;;21.80;100.00
5996;BME280;3026;53.612;7.278;2023-07-13T12:49:47;101416.13;;;21.85;100.00
5996;BME280;3026;53.612;7.278;2023-07-13T12:52:17;101415.44;;;21.90;100.00
5996;BME280;3026;53.612;7.278;2023-07-13T12:54:54;101423.91;;;21.95;100.00
5996;BME280;3026;53.612;7.278;2023-07-13T12:57:23;101417.88;;;21.98;100.00
5996;BME280;3026;53.612;7.278;2023-07-13T12:59:52;101421.44;;;22.05;100.00
5996;BME280;3026;53.612;7.278;2023-07-13T13:02:29;101425.97;;;22.18;100.00
5996;BME280;3026;53.612;7.278;2023-07-13T13:04:57;101413.34;;;22.34;100.00
5996;BME280;3026;53.612;7.278;2023-07-13T13:07:25;101434.28;;;22.36;100.00
5996;BME280;3026;53.612;7.278;2023-07-13T13:09:54;101436.69;;;22.45;100.00